createdAt,value
2019-05-15T00:02:30.724Z,68.80
2019-05-15T00:05:05.877Z,68.62
2019-05-15T00:07:41.596Z,68.41
2019-05-15T00:10:18.139Z,68.57
2019-05-15T00:12:53.502Z,68.44
2019-05-15T00:15:28.574Z,68.67
2019-05-15T00:18:03.542Z,69.35
2019-05-15T00:20:39.397Z,68.70
2019-05-15T00:23:14.762Z,68.95
2019-05-15T00:25:49.942Z,69.61
2019-05-15T00:28:24.962Z,69.61
2019-05-15T00:30:59.968Z,69.65
2019-05-15T00:33:36.510Z,69.80
2019-05-15T00:36:11.452Z,69.93
2019-05-15T00:38:48.298Z,70.49
2019-05-15T00:41:23.898Z,70.33
2019-05-15T00:43:58.862Z,70.24
2019-05-15T00:46:34.057Z,69.85
2019-05-15T00:49:09.097Z,69.50
2019-05-15T00:51:44.037Z,69.50
2019-05-15T00:54:19.313Z,69.31
2019-05-15T00:56:55.222Z,69.44
2019-05-15T00:59:30.308Z,69.33
2019-05-15T01:02:05.368Z,69.32
2019-05-15T01:04:40.471Z,68.99
2019-05-15T01:07:15.499Z,69.29
2019-05-15T01:09:50.472Z,69.12
2019-05-15T01:12:25.557Z,69.00
2019-05-15T01:15:00.513Z,68.63
2019-05-15T01:17:39.092Z,68.84
2019-05-15T01:20:13.073Z,68.60
2019-05-15T01:22:48.541Z,68.85
2019-05-15T01:25:23.711Z,68.37
2019-05-15T01:27:58.730Z,68.90
2019-05-15T01:30:33.979Z,68.85
2019-05-15T01:33:10.612Z,68.86
2019-05-15T01:35:45.549Z,69.05
2019-05-15T01:38:20.474Z,69.40
2019-05-15T01:40:55.997Z,69.61
2019-05-15T01:43:31.017Z,68.51
2019-05-15T01:46:08.207Z,68.43
2019-05-15T01:48:42.719Z,68.92
2019-05-15T01:51:18.490Z,69.13
2019-05-15T01:53:53.665Z,69.19
2019-05-15T01:56:29.311Z,68.52
2019-05-15T01:59:04.536Z,68.68
2019-05-15T02:01:39.493Z,69.39
2019-05-15T02:04:14.437Z,69.70
2019-05-15T02:06:49.497Z,69.42
2019-05-15T02:09:24.524Z,69.25
2019-05-15T02:11:59.598Z,69.74
2019-05-15T02:14:35.273Z,69.36
2019-05-15T02:17:10.351Z,70.55
2019-05-15T02:19:45.375Z,70.64
2019-05-15T02:22:20.425Z,70.77
2019-05-15T02:24:55.467Z,70.87
2019-05-15T02:27:30.404Z,70.56
2019-05-15T02:30:17.874Z,69.97
2019-05-15T02:32:42.728Z,70.94
2019-05-15T02:35:18.545Z,70.99
2019-05-15T02:37:53.735Z,71.01
2019-05-15T02:40:29.413Z,70.38
2019-05-15T02:43:04.773Z,70.32
2019-05-15T02:45:41.917Z,70.79
2019-05-15T02:48:19.713Z,70.30
2019-05-15T02:50:53.056Z,70.34
2019-05-15T02:53:29.889Z,70.36
2019-05-15T02:56:04.720Z,70.20
2019-05-15T02:58:40.200Z,69.98
2019-05-15T03:01:18.735Z,70.97
2019-05-15T03:03:53.373Z,70.34
2019-05-15T03:06:30.003Z,70.69
2019-05-15T03:09:09.163Z,70.65
2019-05-15T03:11:44.314Z,71.02
2019-05-15T03:14:21.436Z,71.71
2019-05-15T03:16:59.569Z,71.58
2019-05-15T03:19:33.668Z,71.32
2019-05-15T03:22:09.701Z,71.44
2019-05-15T03:24:45.812Z,71.84
2019-05-15T03:27:21.530Z,71.52
2019-05-15T03:29:59.328Z,71.71
2019-05-15T03:32:55.780Z,71.79
2019-05-15T03:35:24.749Z,71.81
2019-05-15T03:38:02.358Z,72.19
2019-05-15T03:40:39.597Z,72.61
2019-05-15T03:43:20.057Z,72.08
2019-05-15T03:45:55.079Z,72.30
2019-05-15T03:48:30.350Z,72.12
2019-05-15T03:51:08.895Z,72.04
2019-05-15T03:53:44.797Z,71.63
2019-05-15T03:56:19.866Z,71.77
2019-05-15T03:58:54.811Z,71.87
2019-05-15T04:01:38.494Z,71.62
2019-05-15T04:04:30.453Z,72.19
2019-05-15T04:10:23.110Z,72.10
2019-05-15T04:13:00.101Z,72.03
2019-05-15T04:15:39.318Z,71.97
2019-05-15T04:18:15.044Z,72.01
2019-05-15T04:20:50.559Z,72.51
2019-05-15T04:23:38.809Z,72.67
2019-05-15T04:26:14.410Z,72.73
2019-05-15T04:28:53.095Z,72.93
2019-05-15T04:31:35.407Z,72.50
2019-05-15T04:34:10.592Z,72.36
2019-05-15T04:36:45.530Z,72.58
2019-05-15T04:39:20.507Z,71.97
2019-05-15T04:41:58.878Z,72.06
2019-05-15T04:44:33.192Z,71.74
2019-05-15T04:47:09.667Z,71.41
2019-05-15T04:49:44.962Z,71.82
2019-05-15T04:52:19.899Z,71.83
2019-05-15T04:54:59.610Z,71.46
2019-05-15T04:57:34.300Z,70.99
2019-05-15T05:00:10.355Z,71.11
2019-05-15T05:02:45.492Z,71.37
2019-05-15T05:05:20.567Z,70.44
2019-05-15T05:07:55.727Z,70.29
2019-05-15T05:10:31.704Z,70.04
2019-05-15T05:13:08.759Z,70.07
2019-05-15T05:15:43.505Z,69.73
2019-05-15T05:18:18.974Z,69.44
2019-05-15T05:20:57.620Z,68.95
2019-05-15T05:23:32.021Z,68.55
2019-05-15T05:26:10.599Z,67.57
2019-05-15T05:28:43.644Z,67.56
2019-05-15T05:31:19.370Z,66.45
2019-05-15T05:33:54.534Z,65.73
2019-05-15T05:36:29.600Z,64.41
2019-05-15T05:39:06.212Z,64.81
2019-05-15T05:41:41.267Z,64.57
2019-05-15T05:44:18.711Z,64.70
2019-05-15T05:46:53.080Z,63.88
2019-05-15T05:49:28.833Z,62.16
2019-05-15T05:52:04.137Z,61.89
2019-05-15T05:54:39.882Z,60.46
2019-05-15T05:57:15.781Z,60.10
2019-05-15T05:59:53.047Z,59.81
2019-05-15T06:02:28.120Z,58.71
2019-05-15T06:05:03.298Z,57.88
2019-05-15T06:07:38.903Z,56.86
2019-05-15T06:10:14.316Z,54.50
2019-05-15T06:12:49.254Z,55.29
2019-05-15T06:15:24.254Z,55.06
2019-05-15T06:17:59.998Z,55.27
2019-05-15T06:20:35.419Z,55.53
2019-05-15T06:23:10.446Z,53.07
2019-05-15T06:25:45.537Z,53.01
2019-05-15T06:28:20.656Z,52.81
2019-05-15T06:31:00.544Z,52.85
2019-05-15T06:33:33.551Z,51.63
2019-05-15T06:36:09.117Z,50.86
2019-05-15T06:38:45.432Z,52.68
2019-05-15T06:41:20.422Z,51.53
2019-05-15T06:43:55.569Z,50.70
2019-05-15T06:46:30.641Z,50.47
2019-05-15T06:49:05.722Z,48.62
2019-05-15T06:51:41.790Z,48.62
2019-05-15T06:54:18.955Z,49.56
2019-05-15T06:56:53.634Z,46.59
2019-05-15T06:59:28.939Z,49.19
2019-05-15T07:02:03.924Z,48.56
2019-05-15T07:04:39.000Z,48.40
2019-05-15T07:07:13.956Z,46.64
2019-05-15T07:09:48.927Z,45.95
2019-05-15T07:12:27.986Z,46.18
2019-05-15T07:15:02.356Z,46.31
2019-05-15T07:17:39.236Z,46.71
2019-05-15T07:20:14.718Z,46.76
2019-05-15T07:22:49.854Z,46.37
2019-05-15T07:25:24.924Z,45.17
2019-05-15T07:27:59.882Z,44.34
2019-05-15T07:30:34.872Z,43.88
2019-05-15T07:33:09.935Z,43.49
2019-05-15T07:35:44.938Z,44.63
2019-05-15T07:38:21.094Z,43.55
2019-05-15T07:41:02.992Z,44.19
2019-05-15T07:43:33.374Z,43.01
2019-05-15T07:46:08.679Z,41.51
2019-05-15T07:48:44.113Z,39.71
2019-05-15T07:51:19.362Z,39.97
2019-05-15T07:53:54.348Z,41.44
2019-05-15T07:56:29.468Z,41.29
2019-05-15T07:59:04.554Z,40.00
2019-05-15T08:01:39.549Z,40.92
2019-05-15T08:04:26.111Z,41.16
2019-05-15T08:06:51.169Z,37.79
2019-05-15T08:09:28.281Z,40.14
2019-05-15T08:12:03.436Z,39.06
2019-05-15T08:14:38.936Z,40.14
2019-05-15T08:17:14.057Z,40.39
2019-05-15T08:19:49.152Z,38.10
2019-05-15T08:22:24.202Z,39.37
2019-05-15T08:24:59.281Z,39.03
2019-05-15T08:27:34.331Z,38.31
2019-05-15T08:30:12.704Z,39.48
2019-05-15T08:32:51.389Z,39.78
2019-05-15T08:35:25.283Z,39.32
2019-05-15T08:38:00.316Z,39.02
2019-05-15T08:40:40.712Z,39.24
2019-05-15T08:43:12.700Z,38.75
2019-05-15T08:45:49.488Z,37.86
2019-05-15T08:48:24.700Z,39.64
2019-05-15T08:50:59.716Z,37.51
2019-05-15T08:53:34.780Z,37.29
2019-05-15T08:56:10.034Z,38.57
2019-05-15T08:58:45.072Z,37.75
2019-05-15T09:01:20.066Z,38.14
2019-05-15T09:03:55.132Z,38.65
2019-05-15T09:06:30.337Z,39.14
2019-05-15T09:09:11.306Z,38.48
2019-05-15T09:11:48.330Z,36.99
2019-05-15T09:14:23.163Z,35.50
2019-05-15T09:16:58.395Z,35.25
2019-05-15T09:19:33.545Z,37.37
2019-05-15T09:22:09.209Z,37.32
2019-05-15T09:24:44.440Z,36.48
2019-05-15T09:27:19.678Z,35.16
2019-05-15T09:29:54.652Z,37.05
2019-05-15T09:32:29.775Z,35.85
2019-05-15T09:35:04.993Z,36.28
2019-05-15T09:37:40.208Z,35.57
2019-05-15T09:40:15.192Z,34.46
2019-05-15T09:42:50.297Z,36.25
2019-05-15T09:45:25.525Z,36.18
2019-05-15T09:48:00.784Z,36.01
2019-05-15T09:50:39.669Z,35.49
2019-05-15T09:53:13.603Z,34.10
2019-05-15T09:55:49.710Z,35.22
2019-05-15T09:58:24.916Z,34.40
2019-05-15T10:00:59.936Z,34.63
2019-05-15T10:03:35.767Z,33.32
2019-05-15T10:06:10.746Z,32.79
2019-05-15T10:08:48.729Z,35.15
2019-05-15T10:11:22.543Z,35.64
2019-05-15T10:13:58.514Z,35.35
2019-05-15T10:16:33.874Z,35.69
2019-05-15T10:19:09.096Z,34.98
2019-05-15T10:21:44.297Z,34.25
2019-05-15T10:24:19.700Z,35.45
2019-05-15T10:26:54.715Z,34.65
2019-05-15T10:29:29.785Z,32.94
2019-05-15T10:32:04.888Z,32.77
2019-05-15T10:34:40.030Z,35.29
2019-05-15T10:37:15.090Z,33.76
2019-05-15T10:39:52.768Z,34.18
2019-05-15T10:42:28.993Z,34.98
2019-05-15T10:45:03.576Z,36.25
2019-05-15T10:47:39.104Z,36.42
2019-05-15T10:50:19.068Z,34.69
2019-05-15T10:52:53.541Z,34.19
2019-05-15T10:56:02.752Z,32.62
2019-05-15T10:58:39.282Z,32.60
2019-05-15T11:01:14.841Z,35.08
2019-05-15T11:03:50.139Z,30.71
2019-05-15T11:06:25.257Z,29.82
2019-05-15T11:09:00.253Z,33.57
2019-05-15T11:11:35.796Z,32.71
2019-05-15T11:14:11.079Z,32.63
2019-05-15T11:16:48.405Z,34.64
2019-05-15T11:19:22.748Z,35.05
2019-05-15T11:21:58.658Z,32.69
2019-05-15T11:24:33.979Z,30.96
2019-05-15T11:27:09.968Z,29.73
2019-05-15T11:29:47.715Z,29.60
2019-05-15T11:32:23.539Z,28.73
2019-05-15T11:34:59.165Z,29.38
2019-05-15T11:37:34.234Z,30.42
2019-05-15T11:40:10.766Z,29.87
2019-05-15T11:42:48.766Z,27.30
2019-05-15T11:45:25.361Z,28.17
2019-05-15T11:48:01.079Z,26.66
2019-05-15T11:50:40.053Z,28.96
2019-05-15T11:53:14.665Z,27.52
2019-05-15T11:55:49.775Z,29.22
2019-05-15T11:58:24.939Z,29.22
2019-05-15T12:00:59.990Z,31.87
2019-05-15T12:03:35.120Z,29.31
2019-05-15T12:06:18.035Z,27.25
2019-05-15T12:08:46.840Z,26.99
2019-05-15T12:11:33.337Z,26.77
2019-05-15T12:13:58.646Z,27.60
2019-05-15T12:16:36.205Z,28.79
2019-05-15T12:19:16.971Z,30.02
2019-05-15T12:21:48.827Z,31.71
2019-05-15T12:24:32.787Z,30.77
2019-05-15T12:27:14.132Z,30.46
2019-05-15T12:29:39.842Z,28.31
2019-05-15T12:32:28.476Z,27.67
2019-05-15T12:34:52.929Z,31.13
2019-05-15T12:37:28.503Z,31.24
2019-05-15T13:00:59.683Z,31.14
2019-05-15T13:03:34.708Z,33.96
2019-05-15T13:06:09.817Z,30.33
2019-05-15T13:08:44.926Z,29.32
2019-05-15T13:11:20.017Z,28.01
2019-05-15T13:13:54.987Z,30.68
2019-05-15T13:16:30.084Z,31.37
2019-05-15T13:19:05.121Z,30.81
2019-05-15T13:21:40.432Z,27.51
2019-05-15T13:24:15.427Z,25.95
2019-05-15T13:26:50.516Z,26.45
2019-05-15T13:29:25.565Z,25.24
2019-05-15T13:32:00.552Z,26.41
2019-05-15T13:34:35.679Z,25.14
2019-05-15T13:37:10.770Z,25.73
2019-05-15T13:39:48.391Z,23.98
2019-05-15T13:42:22.537Z,24.99
2019-05-15T13:44:58.675Z,25.46
2019-05-15T13:47:34.505Z,26.53
2019-05-15T13:50:11.395Z,26.49
2019-05-15T13:52:48.195Z,28.34
2019-05-15T13:55:26.080Z,27.27
2019-05-15T13:58:01.106Z,26.09
2019-05-15T14:00:38.941Z,26.74
2019-05-15T14:03:13.213Z,24.70
2019-05-15T14:05:49.750Z,24.34
2019-05-15T14:08:24.977Z,24.74
2019-05-15T14:11:00.406Z,25.66
2019-05-15T14:13:35.365Z,25.58
2019-05-15T14:16:10.387Z,23.97
2019-05-15T14:18:47.851Z,25.41
2019-05-15T14:21:22.265Z,25.09
2019-05-15T14:23:58.872Z,26.64
2019-05-15T14:26:34.134Z,27.81
2019-05-15T14:29:09.882Z,28.78
2019-05-15T14:31:44.971Z,29.95
2019-05-15T14:34:19.964Z,31.81
2019-05-15T14:36:55.349Z,31.49
2019-05-15T14:39:30.329Z,33.49
2019-05-15T14:42:05.468Z,32.47
2019-05-15T14:44:40.594Z,32.61
2019-05-15T14:47:16.075Z,35.02
2019-05-15T14:49:51.043Z,35.16
2019-05-15T14:52:28.058Z,33.64
2019-05-15T14:55:03.559Z,35.13
2019-05-15T14:57:39.675Z,34.53
2019-05-15T15:00:14.992Z,35.27
2019-05-15T15:02:50.753Z,35.78
2019-05-15T15:05:27.135Z,35.00
2019-05-15T15:08:17.369Z,34.88
2019-05-15T15:10:41.716Z,34.39
2019-05-15T15:13:18.257Z,35.56
2019-05-15T15:15:53.706Z,36.31
2019-05-15T15:18:28.806Z,35.62
2019-05-15T15:21:04.894Z,36.45
2019-05-15T15:23:39.920Z,36.14
2019-05-15T15:26:15.195Z,36.44
2019-05-15T15:28:50.193Z,36.84
2019-05-15T15:31:25.347Z,36.09
2019-05-15T15:34:00.566Z,36.38
2019-05-15T15:36:37.920Z,35.28
2019-05-15T15:39:12.608Z,35.63
2019-05-15T15:41:48.583Z,35.44
2019-05-15T15:44:23.683Z,36.26
2019-05-15T15:46:59.426Z,37.35
2019-05-15T15:49:34.734Z,36.69
2019-05-15T15:52:09.822Z,36.41
2019-05-15T15:54:44.908Z,39.49
2019-05-15T15:57:20.925Z,38.40
2019-05-15T15:59:56.032Z,37.36
2019-05-15T16:02:31.006Z,39.02
2019-05-15T16:05:08.181Z,39.23
2019-05-15T16:07:43.679Z,40.41
2019-05-15T16:10:19.216Z,38.90
2019-05-15T16:12:54.208Z,40.64
2019-05-15T16:15:29.977Z,39.65
2019-05-15T16:18:05.147Z,40.47
2019-05-15T16:20:40.190Z,39.76
2019-05-15T16:23:15.272Z,41.02
2019-05-15T16:25:50.263Z,40.39
2019-05-15T16:28:25.503Z,40.21
2019-05-15T16:31:00.615Z,40.78
2019-05-15T16:33:39.011Z,41.46
2019-05-15T16:36:14.270Z,41.14
2019-05-15T16:38:49.344Z,40.43
2019-05-15T16:41:25.116Z,40.63
2019-05-15T16:44:00.310Z,41.16
2019-05-15T16:46:35.934Z,41.19
2019-05-15T16:49:11.072Z,40.05
2019-05-15T16:51:49.016Z,40.65
2019-05-15T16:54:23.334Z,41.76
2019-05-15T16:56:59.696Z,42.65
2019-05-15T16:59:36.059Z,43.86
2019-05-15T17:02:11.951Z,43.29
2019-05-15T17:04:48.838Z,43.89
2019-05-15T17:07:24.213Z,45.37
2019-05-15T17:09:59.512Z,45.26
2019-05-15T17:12:34.740Z,43.89
2019-05-15T17:15:10.528Z,44.63
2019-05-15T17:17:45.605Z,44.90
2019-05-15T17:20:20.928Z,44.78
2019-05-15T17:22:57.925Z,44.30
2019-05-15T17:25:38.293Z,43.84
2019-05-15T17:28:13.069Z,44.96
2019-05-15T17:30:48.792Z,45.50
2019-05-15T17:33:24.042Z,45.64
2019-05-15T17:35:59.696Z,46.03
2019-05-15T17:38:38.131Z,46.32
2019-05-15T17:41:13.372Z,46.76
2019-05-15T17:43:48.685Z,46.43
2019-05-15T17:46:23.909Z,47.12
2019-05-15T17:49:06.799Z,46.58
2019-05-15T17:51:38.347Z,46.04
2019-05-15T17:54:14.679Z,47.11
2019-05-15T17:56:49.851Z,47.67
2019-05-15T17:59:25.013Z,48.61
2019-05-15T18:02:00.885Z,49.10
2019-05-15T18:04:38.571Z,48.92
2019-05-15T18:07:12.891Z,49.84
2019-05-15T18:09:53.400Z,49.26
2019-05-15T18:12:25.002Z,49.41
2019-05-15T18:15:00.908Z,49.88
2019-05-15T18:17:39.215Z,51.44
2019-05-15T18:20:15.384Z,50.92
2019-05-15T18:22:50.728Z,51.57
2019-05-15T18:25:25.732Z,52.72
2019-05-15T18:28:00.987Z,53.37
2019-05-15T18:30:36.122Z,53.79
2019-05-15T18:33:11.884Z,54.00
2019-05-15T18:35:48.630Z,53.67
2019-05-15T18:38:23.870Z,53.51
2019-05-15T18:40:59.085Z,54.31
2019-05-15T18:43:34.204Z,55.93
2019-05-15T18:46:10.078Z,56.33
2019-05-15T18:48:45.444Z,56.49
2019-05-15T18:51:20.694Z,56.79
2019-05-15T18:53:58.810Z,56.59
2019-05-15T18:56:34.234Z,57.31
2019-05-15T18:59:09.514Z,57.91
2019-05-15T19:01:44.507Z,57.88
2019-05-15T19:04:22.782Z,58.35
2019-05-15T19:06:58.372Z,58.33
2019-05-15T19:09:33.692Z,58.40
2019-05-15T19:12:09.307Z,58.10
2019-05-15T19:14:44.798Z,57.92
2019-05-15T19:17:19.922Z,57.94
2019-05-15T19:19:55.018Z,58.32
2019-05-15T19:22:30.182Z,58.33
2019-05-15T19:25:05.638Z,58.28
2019-05-15T19:27:40.962Z,57.57
2019-05-15T19:30:19.059Z,56.96
2019-05-15T19:32:55.038Z,58.03
2019-05-15T19:35:30.233Z,57.63
2019-05-15T19:38:05.442Z,58.02
2019-05-15T19:40:40.660Z,58.55
2019-05-15T19:43:18.083Z,58.12
2019-05-15T19:45:52.583Z,58.17
2019-05-15T19:48:27.645Z,57.26
2019-05-15T19:51:04.661Z,57.25
2019-05-15T19:53:39.847Z,57.80
2019-05-15T19:56:15.242Z,57.76
2019-05-15T19:58:50.601Z,57.52
2019-05-15T20:01:28.046Z,57.96
2019-05-15T20:04:02.777Z,57.11
2019-05-15T20:06:38.719Z,57.91
2019-05-15T20:09:15.012Z,58.56
2019-05-15T20:11:50.189Z,59.08
2019-05-15T20:14:25.382Z,59.52
2019-05-15T20:17:01.173Z,59.74
2019-05-15T20:19:38.268Z,59.16
2019-05-15T20:22:13.147Z,59.18
2019-05-15T20:24:48.377Z,58.03
2019-05-15T20:27:23.544Z,58.16
2019-05-15T20:30:01.428Z,57.75
2019-05-15T20:32:39.314Z,57.70
2019-05-15T20:35:15.862Z,56.87
2019-05-15T20:37:50.869Z,56.65
2019-05-15T20:40:26.034Z,56.62
2019-05-15T20:43:01.069Z,57.15
2019-05-15T20:45:37.169Z,57.55
2019-05-15T20:48:12.260Z,57.65
2019-05-15T20:50:48.242Z,58.76
2019-05-15T20:53:23.454Z,59.22
2019-05-15T20:55:59.013Z,59.60
2019-05-15T20:58:34.291Z,59.51
2019-05-15T21:01:10.138Z,59.08
2019-05-15T21:03:45.240Z,59.27
2019-05-15T21:06:20.286Z,59.21
2019-05-15T21:08:55.314Z,59.40
2019-05-15T21:11:30.447Z,58.91
2019-05-15T21:14:08.537Z,58.81
2019-05-15T21:16:43.001Z,58.40
2019-05-15T21:19:18.972Z,57.41
2019-05-15T21:21:54.089Z,56.73
2019-05-15T21:24:29.213Z,57.89
2019-05-15T21:27:04.203Z,58.26
2019-05-15T21:29:40.659Z,57.88
2019-05-15T21:32:15.751Z,54.78
2019-05-15T21:34:50.860Z,56.82
2019-05-15T21:37:27.527Z,54.45
2019-05-15T21:40:02.590Z,54.17
2019-05-15T21:42:38.874Z,54.42
2019-05-15T21:45:15.084Z,55.20
2019-05-15T21:47:50.223Z,54.44
2019-05-15T21:50:25.218Z,55.16
2019-05-15T21:53:00.267Z,53.27
2019-05-15T21:55:35.868Z,53.46
2019-05-15T21:58:10.951Z,51.98
2019-05-15T22:00:50.831Z,51.97
2019-05-15T22:03:29.141Z,50.67
2019-05-15T22:06:04.532Z,48.65
2019-05-15T22:08:39.563Z,49.69
2019-05-15T22:11:15.031Z,49.76
2019-05-15T22:13:50.073Z,48.79
2019-05-15T22:16:25.233Z,48.73
2019-05-15T22:19:00.243Z,49.21
2019-05-15T22:21:35.371Z,48.29
2019-05-15T22:24:10.453Z,49.00
2019-05-15T22:26:47.783Z,48.43
2019-05-15T22:29:22.288Z,48.67
2019-05-15T22:31:59.066Z,49.22
2019-05-15T22:34:34.253Z,49.14
2019-05-15T22:37:09.481Z,49.68
2019-05-15T22:39:44.731Z,49.44
2019-05-15T22:42:20.821Z,50.32
2019-05-15T22:44:55.866Z,49.59
2019-05-15T22:47:31.041Z,49.00
2019-05-15T22:50:08.357Z,49.60
2019-05-15T22:52:43.559Z,49.79
2019-05-15T22:55:18.648Z,49.56
2019-05-15T22:57:53.795Z,48.71
2019-05-15T23:00:29.148Z,49.55
2019-05-15T23:03:04.434Z,49.82
2019-05-15T23:05:39.420Z,49.94
2019-05-15T23:08:15.421Z,50.52
2019-05-15T23:10:50.395Z,51.23
2019-05-15T23:13:25.413Z,52.60
2019-05-15T23:16:01.170Z,51.18
2019-05-15T23:18:36.277Z,51.27
2019-05-15T23:21:11.391Z,50.83
2019-05-15T23:23:48.516Z,51.21
2019-05-15T23:26:23.237Z,51.44
2019-05-15T23:28:58.616Z,52.48
2019-05-15T23:31:33.800Z,52.44
2019-05-15T23:34:09.257Z,50.88
2019-05-15T23:36:44.349Z,50.22
2019-05-15T23:39:19.348Z,51.28
2019-05-15T23:41:54.545Z,52.09
2019-05-15T23:44:29.529Z,52.59
2019-05-15T23:47:04.601Z,51.82
2019-05-15T23:49:39.686Z,50.23
2019-05-15T23:52:14.765Z,51.08
2019-05-15T23:54:49.855Z,51.45
2019-05-15T23:57:28.677Z,51.14
